sensor_id;sensor_type;location;lat;lon;timestamp;P1;durP1;ratioP1;P2;durP2;ratioP2
63959;SDS011;50136;51.374;0.096;2023-12-20T00:08:18;5.30;;;1.98;;
63959;SDS011;50136;51.374;0.096;2023-12-20T00:18:20;9.65;;;2.30;;
63959;SDS011;50136;51.374;0.096;2023-12-20T00:28:23;13.02;;;2.25;;
63959;SDS011;50136;51.374;0.096;2023-12-20T00:38:25;9.05;;;1.90;;
63959;SDS011;50136;51.374;0.096;2023-12-20T00:48:29;11.45;;;1.75;;
63959;SDS011;50136;51.374;0.096;2023-12-20T00:58:31;11.65;;;2.25;;
63959;SDS011;50136;51.374;0.096;2023-12-20T01:08:34;10.43;;;2.40;;
63959;SDS011;50136;51.374;0.096;2023-12-20T01:18:36;11.00;;;2.65;;
63959;SDS011;50136;51.374;0.096;2023-12-20T01:28:39;10.88;;;1.98;;
63959;SDS011;50136;51.374;0.096;2023-12-20T01:38:41;14.07;;;1.98;;
63959;SDS011;50136;51.374;0.096;2023-12-20T01:48:45;14.27;;;3.92;;
63959;SDS011;50136;51.374;0.096;2023-12-20T01:58:47;16.65;;;2.17;;
63959;SDS011;50136;51.374;0.096;2023-12-20T02:08:51;8.68;;;1.80;;
63959;SDS011;50136;51.374;0.096;2023-12-20T02:18:53;17.42;;;2.22;;
63959;SDS011;50136;51.374;0.096;2023-12-20T02:28:57;16.85;;;4.15;;
63959;SDS011;50136;51.374;0.096;2023-12-20T02:38:59;8.10;;;2.00;;
63959;SDS011;50136;51.374;0.096;2023-12-20T02:49:03;12.30;;;2.53;;
63959;SDS011;50136;51.374;0.096;2023-12-20T02:59:05;14.88;;;2.25;;
63959;SDS011;50136;51.374;0.096;2023-12-20T03:09:08;8.65;;;2.45;;
63959;SDS011;50136;51.374;0.096;2023-12-20T03:19:10;21.60;;;2.75;;
63959;SDS011;50136;51.374;0.096;2023-12-20T03:29:14;12.32;;;2.83;;
63959;SDS011;50136;51.374;0.096;2023-12-20T03:39:17;12.02;;;3.67;;
63959;SDS011;50136;51.374;0.096;2023-12-20T03:49:20;12.30;;;2.05;;
63959;SDS011;50136;51.374;0.096;2023-12-20T03:59:22;20.38;;;4.13;;
63959;SDS011;50136;51.374;0.096;2023-12-20T04:09:28;9.63;;;2.25;;
63959;SDS011;50136;51.374;0.096;2023-12-20T04:19:30;20.40;;;2.55;;
63959;SDS011;50136;51.374;0.096;2023-12-20T04:29:35;17.75;;;4.38;;
63959;SDS011;50136;51.374;0.096;2023-12-20T04:39:37;12.27;;;2.92;;
63959;SDS011;50136;51.374;0.096;2023-12-20T04:49:40;21.75;;;5.05;;
63959;SDS011;50136;51.374;0.096;2023-12-20T04:59:42;18.88;;;3.60;;
63959;SDS011;50136;51.374;0.096;2023-12-20T05:09:46;21.65;;;3.85;;
63959;SDS011;50136;51.374;0.096;2023-12-20T05:19:48;13.07;;;2.70;;
63959;SDS011;50136;51.374;0.096;2023-12-20T05:29:52;12.88;;;2.88;;
63959;SDS011;50136;51.374;0.096;2023-12-20T05:39:53;19.52;;;3.15;;
63959;SDS011;50136;51.374;0.096;2023-12-20T05:49:57;15.82;;;3.70;;
63959;SDS011;50136;51.374;0.096;2023-12-20T05:59:59;19.50;;;2.55;;
63959;SDS011;50136;51.374;0.096;2023-12-20T06:10:02;17.70;;;3.70;;
63959;SDS011;50136;51.374;0.096;2023-12-20T06:20:06;9.60;;;2.70;;
63959;SDS011;50136;51.374;0.096;2023-12-20T06:30:11;16.83;;;3.20;;
63959;SDS011;50136;51.374;0.096;2023-12-20T06:40:13;12.75;;;2.20;;
63959;SDS011;50136;51.374;0.096;2023-12-20T06:50:20;12.60;;;2.63;;
63959;SDS011;50136;51.374;0.096;2023-12-20T07:00:22;10.70;;;3.40;;
63959;SDS011;50136;51.374;0.096;2023-12-20T07:10:25;13.05;;;3.17;;
63959;SDS011;50136;51.374;0.096;2023-12-20T07:20:27;14.05;;;3.67;;
63959;SDS011;50136;51.374;0.096;2023-12-20T07:30:31;17.13;;;3.30;;
63959;SDS011;50136;51.374;0.096;2023-12-20T07:40:33;19.77;;;3.17;;
63959;SDS011;50136;51.374;0.096;2023-12-20T07:50:37;11.80;;;3.65;;
63959;SDS011;50136;51.374;0.096;2023-12-20T08:00:39;20.15;;;2.58;;
63959;SDS011;50136;51.374;0.096;2023-12-20T08:10:42;13.98;;;3.00;;
63959;SDS011;50136;51.374;0.096;2023-12-20T08:20:44;19.02;;;3.28;;
63959;SDS011;50136;51.374;0.096;2023-12-20T08:30:48;13.07;;;3.08;;
63959;SDS011;50136;51.374;0.096;2023-12-20T08:40:50;21.05;;;3.10;;
63959;SDS011;50136;51.374;0.096;2023-12-20T08:50:53;9.05;;;2.28;;
63959;SDS011;50136;51.374;0.096;2023-12-20T09:00:55;11.65;;;3.58;;
63959;SDS011;50136;51.374;0.096;2023-12-20T09:10:59;13.35;;;3.40;;
63959;SDS011;50136;51.374;0.096;2023-12-20T09:21:01;12.70;;;3.13;;
63959;SDS011;50136;51.374;0.096;2023-12-20T09:31:05;14.02;;;2.78;;
63959;SDS011;50136;51.374;0.096;2023-12-20T09:41:08;15.15;;;2.85;;
63959;SDS011;50136;51.374;0.096;2023-12-20T09:51:11;11.55;;;3.65;;
63959;SDS011;50136;51.374;0.096;2023-12-20T10:01:14;16.88;;;3.92;;
63959;SDS011;50136;51.374;0.096;2023-12-20T10:11:19;18.17;;;3.00;;
63959;SDS011;50136;51.374;0.096;2023-12-20T10:21:21;11.38;;;3.90;;
63959;SDS011;50136;51.374;0.096;2023-12-20T10:31:28;9.88;;;2.70;;
63959;SDS011;50136;51.374;0.096;2023-12-20T10:41:32;13.88;;;3.80;;
63959;SDS011;50136;51.374;0.096;2023-12-20T10:51:36;9.60;;;2.20;;
63959;SDS011;50136;51.374;0.096;2023-12-20T11:15:22;16.63;;;3.05;;
63959;SDS011;50136;51.374;0.096;2023-12-20T11:40:05;7.55;;;2.00;;
63959;SDS011;50136;51.374;0.096;2023-12-20T11:50:09;8.07;;;2.08;;
63959;SDS011;50136;51.374;0.096;2023-12-20T12:00:12;9.13;;;2.40;;
63959;SDS011;50136;51.374;0.096;2023-12-20T12:10:17;5.72;;;1.73;;
63959;SDS011;50136;51.374;0.096;2023-12-20T12:20:19;13.48;;;3.15;;
63959;SDS011;50136;51.374;0.096;2023-12-20T12:30:23;8.15;;;2.55;;
63959;SDS011;50136;51.374;0.096;2023-12-20T12:40:26;6.43;;;2.22;;
63959;SDS011;50136;51.374;0.096;2023-12-20T12:50:30;6.18;;;1.73;;
63959;SDS011;50136;51.374;0.096;2023-12-20T16:20:04;5.68;;;2.28;;
63959;SDS011;50136;51.374;0.096;2023-12-20T16:30:07;4.50;;;1.75;;
63959;SDS011;50136;51.374;0.096;2023-12-20T16:40:12;3.67;;;1.77;;
63959;SDS011;50136;51.374;0.096;2023-12-20T16:50:14;9.25;;;2.03;;
63959;SDS011;50136;51.374;0.096;2023-12-20T17:00:18;10.30;;;2.03;;
63959;SDS011;50136;51.374;0.096;2023-12-20T17:10:20;4.63;;;2.85;;
63959;SDS011;50136;51.374;0.096;2023-12-20T17:20:24;12.50;;;2.30;;
63959;SDS011;50136;51.374;0.096;2023-12-20T17:30:26;7.82;;;1.80;;
63959;SDS011;50136;51.374;0.096;2023-12-20T17:40:30;7.75;;;1.90;;
63959;SDS011;50136;51.374;0.096;2023-12-20T17:50:32;7.35;;;1.67;;
63959;SDS011;50136;51.374;0.096;2023-12-20T18:00:35;7.43;;;1.95;;
63959;SDS011;50136;51.374;0.096;2023-12-20T18:10:38;7.32;;;2.13;;
63959;SDS011;50136;51.374;0.096;2023-12-20T18:20:41;8.55;;;2.72;;
63959;SDS011;50136;51.374;0.096;2023-12-20T18:30:43;6.55;;;1.95;;
63959;SDS011;50136;51.374;0.096;2023-12-20T18:40:47;7.78;;;1.88;;
63959;SDS011;50136;51.374;0.096;2023-12-20T18:50:49;9.90;;;2.35;;
63959;SDS011;50136;51.374;0.096;2023-12-20T19:00:52;13.20;;;2.53;;
63959;SDS011;50136;51.374;0.096;2023-12-20T19:10:55;7.10;;;2.58;;
63959;SDS011;50136;51.374;0.096;2023-12-20T19:20:58;11.30;;;2.65;;
63959;SDS011;50136;51.374;0.096;2023-12-20T19:31:01;13.93;;;3.47;;
63959;SDS011;50136;51.374;0.096;2023-12-20T19:41:04;12.55;;;3.13;;
63959;SDS011;50136;51.374;0.096;2023-12-20T19:51:06;10.95;;;3.20;;
63959;SDS011;50136;51.374;0.096;2023-12-20T20:01:10;23.30;;;4.40;;
63959;SDS011;50136;51.374;0.096;2023-12-20T20:11:12;15.65;;;4.32;;
63959;SDS011;50136;51.374;0.096;2023-12-20T20:21:31;22.58;;;5.05;;
63959;SDS011;50136;51.374;0.096;2023-12-20T20:31:33;30.50;;;5.90;;
63959;SDS011;50136;51.374;0.096;2023-12-20T20:41:36;17.92;;;5.97;;
63959;SDS011;50136;51.374;0.096;2023-12-20T20:51:38;20.25;;;4.78;;
63959;SDS011;50136;51.374;0.096;2023-12-20T21:01:42;27.23;;;4.38;;
63959;SDS011;50136;51.374;0.096;2023-12-20T21:11:44;22.00;;;5.88;;
63959;SDS011;50136;51.374;0.096;2023-12-20T21:21:48;19.50;;;5.60;;
63959;SDS011;50136;51.374;0.096;2023-12-20T21:31:50;28.60;;;5.50;;
63959;SDS011;50136;51.374;0.096;2023-12-20T21:41:53;32.17;;;6.57;;
63959;SDS011;50136;51.374;0.096;2023-12-20T21:51:55;25.33;;;5.65;;
63959;SDS011;50136;51.374;0.096;2023-12-20T22:01:59;31.80;;;8.18;;
63959;SDS011;50136;51.374;0.096;2023-12-20T22:12:01;20.63;;;4.63;;
63959;SDS011;50136;51.374;0.096;2023-12-20T22:22:05;20.02;;;4.15;;
63959;SDS011;50136;51.374;0.096;2023-12-20T22:32:07;13.13;;;3.28;;
63959;SDS011;50136;51.374;0.096;2023-12-20T22:42:10;15.90;;;3.30;;
63959;SDS011;50136;51.374;0.096;2023-12-20T22:52:12;10.48;;;2.50;;
63959;SDS011;50136;51.374;0.096;2023-12-20T23:02:16;13.52;;;2.15;;
63959;SDS011;50136;51.374;0.096;2023-12-20T23:12:18;8.25;;;1.88;;
63959;SDS011;50136;51.374;0.096;2023-12-20T23:22:21;7.95;;;2.25;;
63959;SDS011;50136;51.374;0.096;2023-12-20T23:32:23;8.93;;;2.40;;
63959;SDS011;50136;51.374;0.096;2023-12-20T23:42:27;3.95;;;1.55;;
63959;SDS011;50136;51.374;0.096;2023-12-20T23:52:29;8.48;;;1.83;;
